Time;durP1;ratioP1;P1;durP2;ratioP2;P2;SDS_P1;SDS_P2;PMS_P1;PMS_P2;Temp;Humidity;BMP_temperature;BMP_pressure;BME280_temperature;BME280_humidity;BME280_pressure;Samples;Min_cycle;Max_cycle;Signal;HPM_P1;HPM_P2
2022/07/18 00:00:40;;;;;;;3.92;2.50;;;20.40;78.00;;;;;;5091147;28;20210;-80
2022/07/18 00:03:08;;;;;;;3.25;1.90;;;20.30;79.40;;;;;;5099471;28;20213;-80
2022/07/18 00:05:35;;;;;;;3.50;2.15;;;20.20;79.50;;;;;;5094424;28;20201;-80
2022/07/18 00:08:03;;;;;;;3.05;1.90;;;20.20;80.80;;;;;;5103937;28;20205;-80
2022/07/18 00:10:31;;;;;;;3.25;1.75;;;20.20;81.60;;;;;;5074752;28;20211;-81
2022/07/18 00:12:58;;;;;;;3.70;1.85;;;20.10;83.00;;;;;;5074216;28;20651;-80
2022/07/18 00:15:26;;;;;;;3.03;2.00;;;20.00;84.00;;;;;;5076038;28;20181;-80
2022/07/18 00:17:55;;;;;;;2.92;1.90;;;19.90;84.70;;;;;;5091005;28;20201;-80
2022/07/18 00:20:22;;;;;;;2.92;1.65;;;19.90;85.60;;;;;;5087632;28;20213;-80
2022/07/18 00:22:50;;;;;;;3.35;1.98;;;19.90;86.30;;;;;;5111487;28;20197;-80
2022/07/18 00:25:17;;;;;;;3.83;2.35;;;19.90;86.00;;;;;;5094346;28;20193;-80
2022/07/18 00:27:45;;;;;;;4.30;1.92;;;19.90;86.50;;;;;;5095610;28;20680;-80
2022/07/18 00:30:13;;;;;;;4.45;2.05;;;19.70;87.30;;;;;;5096554;28;20189;-79
2022/07/18 00:32:41;;;;;;;4.00;1.75;;;19.60;88.30;;;;;;5095717;28;20215;-79
2022/07/18 00:35:10;;;;;;;2.67;2.00;;;19.50;90.10;;;;;;5095891;28;20216;-79
2022/07/18 00:37:37;;;;;;;2.72;1.90;;;19.50;90.10;;;;;;5095996;28;20216;-79
2022/07/18 00:40:06;;;;;;;3.97;2.17;;;19.40;90.70;;;;;;5095548;28;20205;-79
2022/07/18 00:42:34;;;;;;;2.80;2.10;;;19.40;90.90;;;;;;5095109;28;20192;-80
2022/07/18 00:45:02;;;;;;;2.95;1.88;;;19.40;91.20;;;;;;5095188;28;20205;-80
2022/07/18 00:47:30;;;;;;;2.63;1.90;;;19.50;91.00;;;;;;5093690;28;20215;-80
2022/07/18 00:49:57;;;;;;;3.17;2.22;;;19.40;91.20;;;;;;5093849;28;20181;-79
2022/07/18 00:52:26;;;;;;;3.80;1.90;;;19.30;91.30;;;;;;5109877;28;20193;-79
2022/07/18 00:54:54;;;;;;;2.78;1.88;;;19.30;91.50;;;;;;5093073;28;20216;-79
2022/07/18 00:57:21;;;;;;;2.10;1.60;;;19.20;91.80;;;;;;5093314;28;20642;-80
2022/07/18 01:02:34;;;;;;;3.63;1.90;;;19.10;92.60;;;;;;5093178;28;20200;-79
2022/07/18 01:05:02;;;;;;;2.70;1.80;;;19.10;92.60;;;;;;5109696;28;20224;-80
2022/07/18 01:07:34;;;;;;;2.53;2.00;;;19.20;92.70;;;;;;5092426;28;20196;-79
2022/07/18 01:10:01;;;;;;;3.67;2.15;;;19.20;92.60;;;;;;5093628;28;20200;-79
2022/07/18 01:12:29;;;;;;;2.72;1.92;;;19.20;92.60;;;;;;5094468;28;20188;-80
2022/07/18 01:14:57;;;;;;;3.53;2.30;;;19.20;92.50;;;;;;5094348;28;20200;-80
2022/07/18 01:17:25;;;;;;;3.30;1.95;;;19.20;92.40;;;;;;5109381;28;20193;-79
2022/07/18 01:19:52;;;;;;;2.28;1.90;;;19.20;92.50;;;;;;5109501;28;20217;-80
2022/07/18 01:22:22;;;;;;;3.17;1.77;;;19.20;92.60;;;;;;5109660;28;20197;-79
2022/07/18 01:24:49;;;;;;;2.22;1.67;;;19.10;92.90;;;;;;5092569;28;20221;-79
2022/07/18 01:27:19;;;;;;;2.47;2.20;;;19.10;93.10;;;;;;5092446;28;20197;-80
2022/07/18 01:29:47;;;;;;;2.88;2.00;;;19.00;93.30;;;;;;5092624;28;20193;-80
2022/07/18 01:32:15;;;;;;;3.78;2.17;;;19.00;93.40;;;;;;5093356;28;20204;-80
2022/07/18 01:34:44;;;;;;;3.75;2.03;;;19.00;93.40;;;;;;5096110;28;20741;-80
2022/07/18 01:37:12;;;;;;;4.00;2.00;;;18.90;93.70;;;;;;5072302;28;20209;-79
2022/07/18 01:39:41;;;;;;;2.60;1.85;;;18.80;94.10;;;;;;5088985;28;20584;-79
2022/07/18 01:42:10;;;;;;;2.92;2.00;;;18.90;94.20;;;;;;5088434;28;20702;-79
2022/07/18 01:44:39;;;;;;;2.58;1.77;;;18.80;94.20;;;;;;5072141;28;20216;-80
2022/07/18 01:47:11;;;;;;;3.22;2.15;;;18.70;94.50;;;;;;5072342;28;20204;-79
2022/07/18 01:49:39;;;;;;;4.45;1.98;;;18.70;94.80;;;;;;5072396;28;20202;-79
2022/07/18 01:52:07;;;;;;;2.58;1.85;;;18.80;94.70;;;;;;5072072;28;20220;-80
2022/07/18 01:54:36;;;;;;;3.40;2.42;;;18.70;94.80;;;;;;5088659;28;20224;-79
2022/07/18 01:57:07;;;;;;;3.10;1.83;;;18.70;94.90;;;;;;5088715;28;20549;-79
2022/07/18 01:59:35;;;;;;;1.73;1.63;;;18.40;95.20;;;;;;5107408;28;20689;-79
2022/07/18 02:02:04;;;;;;;4.53;2.00;;;18.40;95.20;;;;;;5075564;28;20209;-79
2022/07/18 02:07:21;;;;;;;2.97;2.05;;;18.10;95.60;;;;;;5072120;28;20200;-79
2022/07/18 02:09:49;;;;;;;3.38;1.98;;;18.10;95.80;;;;;;5088424;28;20205;-80
2022/07/18 02:12:18;;;;;;;4.10;2.28;;;17.90;96.50;;;;;;5079055;28;20197;-79
2022/07/18 02:14:45;;;;;;;2.75;2.10;;;18.00;96.80;;;;;;5092738;28;20224;-79
2022/07/18 02:17:13;;;;;;;3.38;1.90;;;18.00;96.90;;;;;;5109487;28;20201;-80
2022/07/18 02:19:41;;;;;;;3.25;2.22;;;18.10;96.70;;;;;;5113288;28;20680;-79
2022/07/18 02:22:08;;;;;;;2.72;2.13;;;18.10;96.70;;;;;;5095875;28;20224;-80
2022/07/18 02:24:36;;;;;;;3.65;1.77;;;17.80;97.40;;;;;;5097226;28;20215;-79
2022/07/18 02:27:04;;;;;;;2.42;1.88;;;17.70;98.50;;;;;;5112572;28;20223;-79
2022/07/18 02:29:32;;;;;;;2.50;2.17;;;17.70;98.30;;;;;;5095998;28;20196;-79
2022/07/18 02:32:00;;;;;;;3.50;2.17;;;17.60;98.70;;;;;;5095873;28;20197;-80
2022/07/18 02:37:09;;;;;;;2.35;1.83;;;17.50;99.50;;;;;;5054698;28;20209;-82
2022/07/18 02:39:36;;;;;;;2.20;1.90;;;17.30;99.90;;;;;;5056602;28;20198;-82
2022/07/18 02:42:04;;;;;;;2.70;1.63;;;17.30;99.90;;;;;;5049928;28;20217;-82
2022/07/18 02:44:33;;;;;;;4.22;1.98;;;17.30;99.90;;;;;;5057515;28;20201;-82
2022/07/18 02:47:01;;;;;;;3.35;1.83;;;17.30;99.90;;;;;;5056834;28;20194;-82
2022/07/18 02:49:28;;;;;;;4.18;1.98;;;17.20;99.90;;;;;;5038210;28;20222;-82
2022/07/18 02:51:57;;;;;;;2.70;2.08;;;17.40;99.90;;;;;;5038184;28;20198;-82
2022/07/18 02:54:25;;;;;;;1.80;1.60;;;17.50;99.70;;;;;;5031133;28;20207;-82
2022/07/18 02:56:53;;;;;;;4.55;2.55;;;17.50;99.60;;;;;;5037771;28;20214;-82
2022/07/18 02:59:21;;;;;;;3.17;1.85;;;17.60;99.40;;;;;;5037718;28;20206;-82
2022/07/18 03:01:50;;;;;;;2.40;1.67;;;17.50;99.80;;;;;;5037820;28;20226;-82
2022/07/18 03:04:18;;;;;;;2.08;1.88;;;17.40;99.90;;;;;;5038424;28;20205;-82
2022/07/18 03:06:47;;;;;;;1.95;1.75;;;17.50;99.90;;;;;;5037560;28;20214;-82
2022/07/18 03:09:15;;;;;;;2.83;1.92;;;17.40;99.90;;;;;;5036278;28;20209;-82
2022/07/18 03:11:43;;;;;;;3.33;1.95;;;17.00;99.90;;;;;;5037571;28;20705;-82
2022/07/18 03:14:10;;;;;;;2.53;1.85;;;17.00;99.90;;;;;;5037876;28;20198;-82
2022/07/18 03:16:38;;;;;;;4.25;2.30;;;17.20;99.90;;;;;;5037301;28;20233;-82
2022/07/18 03:19:07;;;;;;;2.42;2.00;;;17.20;99.90;;;;;;5037645;28;20202;-82
2022/07/18 03:21:34;;;;;;;4.00;2.35;;;17.30;99.90;;;;;;5054712;28;20217;-82
2022/07/18 03:24:02;;;;;;;2.10;1.90;;;17.30;99.90;;;;;;5028013;28;20225;-82
2022/07/18 03:26:29;;;;;;;3.40;2.10;;;17.30;99.90;;;;;;5037059;28;20576;-82
2022/07/18 03:28:57;;;;;;;3.70;2.17;;;17.40;99.90;;;;;;5036313;28;20198;-82
2022/07/18 03:31:25;;;;;;;3.67;2.47;;;17.30;99.90;;;;;;5037099;28;20186;-82
2022/07/18 03:33:52;;;;;;;3.75;2.33;;;17.10;99.90;;;;;;5055930;28;20198;-82
2022/07/18 03:36:21;;;;;;;3.10;1.98;;;17.00;99.90;;;;;;5036765;28;20229;-82
2022/07/18 03:38:49;;;;;;;3.97;2.22;;;16.90;99.90;;;;;;5036629;28;20205;-82
2022/07/18 03:41:16;;;;;;;2.85;2.17;;;17.00;99.90;;;;;;5036899;28;20222;-82
2022/07/18 03:43:44;;;;;;;3.95;2.33;;;17.00;99.90;;;;;;5036569;28;20209;-82
2022/07/18 03:46:11;;;;;;;4.43;2.50;;;17.00;99.90;;;;;;5036952;28;20226;-82
2022/07/18 03:48:39;;;;;;;3.25;2.08;;;17.10;99.90;;;;;;5036717;28;20203;-82
2022/07/18 03:51:07;;;;;;;3.90;2.28;;;17.20;99.90;;;;;;5031258;28;20199;-82
2022/07/18 03:53:36;;;;;;;4.70;2.60;;;17.30;99.90;;;;;;5035887;28;20198;-82
2022/07/18 03:56:04;;;;;;;2.88;2.33;;;17.20;99.90;;;;;;5036643;28;20225;-82
2022/07/18 03:58:31;;;;;;;5.70;2.92;;;17.20;99.90;;;;;;5036368;28;20190;-82
2022/07/18 04:00:59;;;;;;;4.53;2.72;;;17.10;99.90;;;;;;5036768;28;20221;-82
2022/07/18 04:03:26;;;;;;;4.25;2.63;;;17.20;99.90;;;;;;5036544;28;20190;-82
2022/07/18 04:05:54;;;;;;;6.22;3.10;;;17.20;99.90;;;;;;5034471;28;20230;-82
2022/07/18 04:08:21;;;;;;;5.18;2.40;;;17.10;99.90;;;;;;5054763;28;20194;-82
2022/07/18 04:10:50;;;;;;;3.90;2.78;;;17.00;99.90;;;;;;5036720;28;20199;-82
2022/07/18 04:13:18;;;;;;;6.05;2.80;;;16.90;99.90;;;;;;5036411;28;20202;-82
2022/07/18 04:15:45;;;;;;;5.32;2.88;;;16.80;99.90;;;;;;5036739;28;20222;-82
2022/07/18 04:18:13;;;;;;;4.35;2.40;;;16.90;99.90;;;;;;5035043;28;20206;-82
2022/07/18 04:20:40;;;;;;;4.90;2.65;;;17.00;99.90;;;;;;5036016;28;20201;-82
2022/07/18 04:23:09;;;;;;;5.80;2.97;;;17.10;99.90;;;;;;5036523;28;20202;-82
2022/07/18 04:25:38;;;;;;;4.50;2.63;;;17.10;99.90;;;;;;5036816;28;20233;-82
2022/07/18 04:28:10;;;;;;;5.25;2.20;;;17.10;99.90;;;;;;5036196;28;20210;-82
2022/07/18 04:30:38;;;;;;;4.30;2.72;;;17.20;99.90;;;;;;5035827;28;20190;-82
2022/07/18 04:33:08;;;;;;;3.95;2.58;;;17.30;99.90;;;;;;5036672;28;20206;-82
2022/07/18 04:35:39;;;;;;;4.30;2.53;;;17.40;99.90;;;;;;5028698;28;20230;-82
2022/07/18 04:38:08;;;;;;;2.97;2.30;;;17.40;99.90;;;;;;5054655;28;20197;-82
2022/07/18 04:40:35;;;;;;;3.75;2.55;;;17.50;99.90;;;;;;5034933;28;20202;-82
2022/07/18 04:43:04;;;;;;;4.60;3.22;;;17.60;99.90;;;;;;5035897;28;20234;-82
2022/07/18 04:45:33;;;;;;;3.38;2.60;;;17.50;99.90;;;;;;5036115;28;20229;-82
2022/07/18 04:48:01;;;;;;;5.18;2.90;;;17.60;99.90;;;;;;5030370;28;20210;-82
2022/07/18 04:50:29;;;;;;;5.57;3.03;;;17.70;99.90;;;;;;5052009;28;20206;-82
2022/07/18 04:52:58;;;;;;;4.03;2.45;;;17.70;99.90;;;;;;5036282;28;20191;-82
2022/07/18 04:55:28;;;;;;;4.40;3.08;;;17.80;99.90;;;;;;5035802;28;20230;-82
2022/07/18 04:57:56;;;;;;;3.97;3.05;;;17.80;99.90;;;;;;5035902;28;20194;-82
2022/07/18 05:00:26;;;;;;;5.93;3.08;;;17.80;99.90;;;;;;5031514;28;20688;-82
2022/07/18 05:02:57;;;;;;;4.53;2.65;;;17.80;99.90;;;;;;5035813;28;20222;-82
2022/07/18 05:05:26;;;;;;;4.28;2.42;;;17.90;99.90;;;;;;5035175;28;20578;-82
2022/07/18 05:07:54;;;;;;;5.05;2.63;;;18.00;99.90;;;;;;5035423;28;20210;-82
2022/07/18 05:10:24;;;;;;;4.72;2.70;;;18.00;99.90;;;;;;5035592;28;20195;-82
2022/07/18 05:12:53;;;;;;;5.50;2.72;;;18.00;99.90;;;;;;5053759;28;20179;-82
2022/07/18 05:15:23;;;;;;;3.90;3.00;;;18.10;99.90;;;;;;5035395;28;20225;-82
2022/07/18 05:17:51;;;;;;;4.20;2.72;;;18.20;99.90;;;;;;5034913;28;20561;-82
2022/07/18 05:20:22;;;;;;;4.63;2.92;;;18.20;99.90;;;;;;5035666;28;20202;-82
2022/07/18 05:22:51;;;;;;;4.43;3.28;;;18.40;99.90;;;;;;5034692;28;20702;-82
2022/07/18 05:25:19;;;;;;;4.07;2.75;;;18.50;99.90;;;;;;5035346;28;20225;-82
2022/07/18 05:27:47;;;;;;;3.80;2.70;;;18.50;99.90;;;;;;5034968;28;20209;-82
2022/07/18 05:30:15;;;;;;;4.75;2.53;;;18.50;99.90;;;;;;5051268;28;20210;-82
2022/07/18 05:32:44;;;;;;;2.65;2.10;;;18.60;99.90;;;;;;5034670;28;20195;-82
2022/07/18 05:35:13;;;;;;;3.92;2.60;;;18.70;99.90;;;;;;5034563;28;20233;-82
2022/07/18 05:37:43;;;;;;;4.18;2.75;;;18.80;99.90;;;;;;5034277;28;20265;-82
2022/07/18 05:40:12;;;;;;;3.83;2.90;;;18.90;99.90;;;;;;5035070;28;20197;-82
2022/07/18 05:42:40;;;;;;;4.40;2.45;;;19.20;99.90;;;;;;5034838;28;20233;-82
2022/07/18 05:45:09;;;;;;;5.80;2.85;;;19.30;99.90;;;;;;5024527;28;20222;-82
2022/07/18 05:47:36;;;;;;;5.07;2.63;;;19.40;99.90;;;;;;5032969;28;20515;-82
2022/07/18 05:50:05;;;;;;;3.95;2.42;;;19.50;99.90;;;;;;5030782;28;20214;-82
2022/07/18 05:52:33;;;;;;;5.85;2.28;;;19.50;99.90;;;;;;5031905;28;20209;-82
2022/07/18 05:55:02;;;;;;;4.22;2.20;;;19.60;99.90;;;;;;5033930;28;20272;-82
2022/07/18 05:57:29;;;;;;;5.75;2.60;;;19.80;99.80;;;;;;5035405;28;20205;-82
2022/07/18 05:59:57;;;;;;;4.35;2.75;;;19.80;99.40;;;;;;5036794;28;20201;-80
2022/07/18 06:02:25;;;;;;;4.60;2.25;;;19.90;99.00;;;;;;5037284;28;20229;-80
2022/07/18 06:04:53;;;;;;;4.85;2.45;;;20.00;98.20;;;;;;5053889;28;20200;-80
2022/07/18 06:07:21;;;;;;;3.78;2.35;;;20.10;97.60;;;;;;5037702;28;20206;-80
2022/07/18 06:09:48;;;;;;;5.75;2.38;;;20.20;96.80;;;;;;5037206;28;20194;-80
2022/07/18 06:12:17;;;;;;;3.45;2.40;;;20.30;96.20;;;;;;5055114;28;20193;-80
2022/07/18 06:14:45;;;;;;;4.70;2.13;;;20.40;95.90;;;;;;5037390;28;20210;-81
2022/07/18 06:17:12;;;;;;;4.00;1.95;;;20.40;95.30;;;;;;5036540;28;20213;-80
2022/07/18 06:19:41;;;;;;;4.68;2.30;;;20.50;94.60;;;;;;5042410;28;20673;-80
2022/07/18 06:22:09;;;;;;;3.83;2.10;;;20.70;93.70;;;;;;5036057;28;20221;-81
2022/07/18 06:24:37;;;;;;;6.38;1.98;;;20.80;93.30;;;;;;5036768;28;20198;-80
2022/07/18 06:27:04;;;;;;;4.03;1.80;;;20.90;92.10;;;;;;5036486;28;20202;-80
2022/07/18 06:29:33;;;;;;;4.75;2.10;;;21.00;91.60;;;;;;5036798;28;20208;-80
2022/07/18 06:32:01;;;;;;;3.08;1.67;;;21.20;91.10;;;;;;5035442;28;20211;-83
2022/07/18 06:34:28;;;;;;;2.72;1.70;;;21.30;90.30;;;;;;5035210;28;20241;-83
2022/07/18 06:36:56;;;;;;;3.58;1.95;;;21.50;89.00;;;;;;5032469;28;20237;-83
2022/07/18 06:39:23;;;;;;;3.05;1.80;;;21.50;87.60;;;;;;5052382;28;20190;-83
2022/07/18 06:41:51;;;;;;;4.20;1.70;;;21.60;90.00;;;;;;5034267;28;20213;-83
2022/07/18 06:44:18;;;;;;;3.30;1.85;;;21.70;88.40;;;;;;5034111;28;20667;-83
2022/07/18 06:46:47;;;;;;;4.47;1.67;;;21.80;88.00;;;;;;5034420;28;20218;-83
2022/07/18 06:49:15;;;;;;;3.15;1.48;;;21.90;87.40;;;;;;5032545;28;20201;-83
2022/07/18 06:51:43;;;;;;;3.88;1.60;;;22.10;86.20;;;;;;5033732;28;20191;-83
2022/07/18 06:54:10;;;;;;;2.58;1.45;;;22.20;82.60;;;;;;5052053;28;20525;-83
2022/07/18 06:56:38;;;;;;;1.95;1.13;;;22.30;79.80;;;;;;5033589;28;20718;-83
2022/07/18 06:59:05;;;;;;;3.67;1.60;;;22.40;77.90;;;;;;5033737;28;20207;-83
2022/07/18 07:01:33;;;;;;;4.85;1.75;;;22.40;76.40;;;;;;5033842;28;20198;-82
2022/07/18 07:04:02;;;;;;;3.10;1.42;;;22.40;76.80;;;;;;5034284;28;20222;-83
2022/07/18 07:06:30;;;;;;;3.08;1.40;;;22.50;75.40;;;;;;5035623;28;20218;-83
2022/07/18 07:08:57;;;;;;;3.67;2.47;;;22.70;75.50;;;;;;5055571;28;20190;-83
2022/07/18 07:11:25;;;;;;;2.95;1.55;;;22.80;75.30;;;;;;5037052;28;20208;-83
2022/07/18 07:13:52;;;;;;;4.47;1.50;;;23.00;74.50;;;;;;5037513;28;20198;-83
2022/07/18 07:16:20;;;;;;;3.10;1.33;;;23.20;73.80;;;;;;5037382;28;20218;-83
2022/07/18 07:18:47;;;;;;;2.55;1.45;;;23.30;72.70;;;;;;5037934;28;20203;-83
2022/07/18 07:21:16;;;;;;;2.17;1.67;;;23.20;70.20;;;;;;5034680;28;20202;-83
2022/07/18 07:23:44;;;;;;;3.00;1.65;;;23.20;70.20;;;;;;5036371;28;20214;-83
2022/07/18 07:26:11;;;;;;;4.60;1.77;;;23.20;72.10;;;;;;5056622;28;20206;-83
2022/07/18 07:28:39;;;;;;;2.47;1.23;;;23.50;72.20;;;;;;5037326;28;20562;-83
2022/07/18 07:31:06;;;;;;;4.65;1.65;;;23.60;70.80;;;;;;5037120;28;20213;-82
2022/07/18 07:33:34;;;;;;;3.55;1.90;;;23.60;68.80;;;;;;5055452;28;20204;-83
2022/07/18 07:36:03;;;;;;;3.20;1.77;;;23.60;69.10;;;;;;5035515;28;20230;-81
2022/07/18 07:38:32;;;;;;;2.78;1.10;;;23.80;69.70;;;;;;5037993;28;20190;-81
2022/07/18 07:41:01;;;;;;;4.00;1.48;;;23.80;67.70;;;;;;5037989;28;20210;-81
2022/07/18 07:43:28;;;;;;;4.45;1.48;;;23.80;66.80;;;;;;5038816;28;20233;-81
2022/07/18 07:45:56;;;;;;;4.00;1.80;;;23.90;66.50;;;;;;5038172;28;20222;-81
2022/07/18 07:48:25;;;;;;;6.28;2.05;;;24.10;67.30;;;;;;5037141;28;20203;-82
2022/07/18 07:50:52;;;;;;;3.20;1.55;;;24.10;66.20;;;;;;5031722;28;20199;-81
2022/07/18 07:53:20;;;;;;;3.83;1.60;;;24.20;66.40;;;;;;5037105;28;20198;-83
2022/07/18 07:55:48;;;;;;;4.68;1.67;;;24.40;66.50;;;;;;5050517;28;20213;-81
2022/07/18 07:58:16;;;;;;;3.65;1.45;;;24.60;65.00;;;;;;5037768;28;20401;-81
2022/07/18 08:00:44;;;;;;;5.00;1.48;;;24.60;64.00;;;;;;5036903;28;20206;-81
2022/07/18 08:03:11;;;;;;;3.78;1.50;;;24.80;63.90;;;;;;5036682;28;20214;-81
2022/07/18 08:05:44;;;;;;;3.05;1.55;;;24.90;63.20;;;;;;5036237;28;20229;-81
2022/07/18 08:08:12;;;;;;;2.28;1.30;;;24.90;62.60;;;;;;5026301;28;20198;-80
2022/07/18 08:10:40;;;;;;;3.22;1.40;;;24.90;60.80;;;;;;5033637;28;20206;-80
2022/07/18 08:13:12;;;;;;;4.30;1.60;;;25.10;60.00;;;;;;5028907;28;20198;-81
2022/07/18 08:15:41;;;;;;;2.72;1.63;;;25.10;59.90;;;;;;5040012;28;20733;-81
2022/07/18 08:18:08;;;;;;;4.32;1.30;;;25.20;58.10;;;;;;5054628;28;20190;-82
2022/07/18 08:20:36;;;;;;;2.85;1.52;;;25.20;57.20;;;;;;5031085;28;20206;-81
2022/07/18 08:23:05;;;;;;;3.10;1.52;;;25.20;57.00;;;;;;5031108;28;20699;-81
2022/07/18 08:25:34;;;;;;;2.80;1.42;;;25.30;54.90;;;;;;5034303;28;20218;-81
2022/07/18 08:28:02;;;;;;;3.90;1.25;;;25.30;55.40;;;;;;5034045;28;20194;-81
2022/07/18 08:30:32;;;;;;;2.33;1.30;;;25.20;54.70;;;;;;5022970;28;20203;-80
2022/07/18 08:33:00;;;;;;;2.15;1.17;;;25.30;54.50;;;;;;5037270;28;20202;-81
2022/07/18 08:35:28;;;;;;;3.13;1.13;;;25.60;51.90;;;;;;5060681;22;20199;-78
2022/07/18 08:37:56;;;;;;;1.00;0.90;;;25.50;52.30;;;;;;5066386;28;20201;-78
2022/07/18 08:40:23;;;;;;;1.52;1.20;;;25.30;51.90;;;;;;5051965;28;20201;-78
2022/07/18 08:42:52;;;;;;;2.15;1.10;;;25.50;51.30;;;;;;5042593;28;20197;-78
2022/07/18 08:45:22;;;;;;;2.10;1.00;;;25.80;50.50;;;;;;5055337;28;20189;-78
2022/07/18 08:47:52;;;;;;;2.60;1.15;;;26.00;50.50;;;;;;5072080;28;20198;-78
2022/07/18 08:50:19;;;;;;;2.28;1.20;;;25.90;50.00;;;;;;5071460;28;20193;-78
2022/07/18 08:52:47;;;;;;;3.40;1.60;;;25.70;50.00;;;;;;5071575;28;20552;-78
2022/07/18 08:55:15;;;;;;;1.83;1.33;;;25.60;49.10;;;;;;5067783;28;20221;-78
2022/07/18 08:57:42;;;;;;;1.77;1.10;;;25.80;49.30;;;;;;5065990;28;20213;-78
2022/07/18 09:00:11;;;;;;;2.85;1.17;;;25.90;49.40;;;;;;5072888;28;20264;-78
2022/07/18 09:02:39;;;;;;;6.97;1.55;;;26.10;48.70;;;;;;5054968;28;20193;-78
2022/07/18 09:05:19;;;;;;;3.35;1.63;;;26.20;49.00;;;;;;5071269;28;20236;-78
2022/07/18 09:07:46;;;;;;;3.10;1.48;;;26.00;48.20;;;;;;5054527;28;20287;-78
2022/07/18 09:10:14;;;;;;;4.75;1.30;;;26.00;47.90;;;;;;5072559;28;20690;-78
2022/07/18 09:12:56;;;;;;;1.85;1.20;;;25.90;47.70;;;;;;5054404;28;20201;-78
2022/07/18 09:15:24;;;;;;;3.17;1.30;;;26.20;47.00;;;;;;5042306;28;20695;-78
2022/07/18 09:17:51;;;;;;;4.00;1.30;;;26.50;46.10;;;;;;5051273;28;20203;-78
2022/07/18 09:20:21;;;;;;;2.60;1.52;;;26.70;44.60;;;;;;5025831;28;20198;-78
2022/07/18 09:22:49;;;;;;;3.10;1.35;;;26.70;43.80;;;;;;5054209;28;20226;-78
2022/07/18 09:25:19;;;;;;;2.00;1.30;;;26.50;43.30;;;;;;5040242;28;20221;-78
2022/07/18 09:27:52;;;;;;;1.52;1.10;;;26.80;44.20;;;;;;5032961;28;20198;-78
2022/07/18 09:30:28;;;;;;;2.28;1.25;;;27.00;44.40;;;;;;5035929;28;20199;-78
2022/07/18 09:33:06;;;;;;;1.90;1.40;;;26.90;44.10;;;;;;5030560;28;20206;-78
2022/07/18 09:35:36;;;;;;;4.75;1.52;;;27.00;42.60;;;;;;5056960;28;20572;-78
2022/07/18 09:38:05;;;;;;;1.95;1.30;;;27.30;41.90;;;;;;5035444;28;20209;-78
2022/07/18 09:40:34;;;;;;;2.92;1.63;;;27.40;40.80;;;;;;5028006;28;20217;-78
2022/07/18 09:43:03;;;;;;;2.78;1.30;;;27.40;40.20;;;;;;5050325;28;20195;-78
2022/07/18 09:45:33;;;;;;;2.95;1.45;;;26.90;40.60;;;;;;5041857;28;20226;-78
2022/07/18 09:48:02;;;;;;;2.17;1.60;;;26.90;41.00;;;;;;5027371;28;20195;-78
2022/07/18 09:50:35;;;;;;;3.40;1.40;;;26.80;41.60;;;;;;5045536;28;20202;-78
2022/07/18 09:53:14;;;;;;;3.50;1.60;;;27.00;40.70;;;;;;5059453;28;20190;-78
2022/07/18 09:55:47;;;;;;;2.20;1.50;;;27.60;39.80;;;;;;5055427;28;20445;-78
2022/07/18 09:58:17;;;;;;;1.73;1.50;;;27.40;39.40;;;;;;5031240;28;20213;-78
2022/07/18 10:00:47;;;;;;;3.30;1.50;;;27.10;38.40;;;;;;5045686;28;20197;-78
2022/07/18 10:03:16;;;;;;;2.20;1.35;;;27.30;37.70;;;;;;5024489;28;20206;-78
2022/07/18 10:05:47;;;;;;;3.00;1.50;;;27.20;36.40;;;;;;5035623;28;20246;-78
2022/07/18 10:08:16;;;;;;;3.55;1.35;;;27.60;35.40;;;;;;5041426;28;20213;-78
2022/07/18 10:10:46;;;;;;;2.03;1.65;;;27.70;33.70;;;;;;5061700;28;20200;-78
2022/07/18 10:13:14;;;;;;;2.10;1.45;;;27.90;33.40;;;;;;5041371;28;20209;-79
2022/07/18 10:15:42;;;;;;;1.90;1.73;;;28.00;34.30;;;;;;5050619;28;20217;-79
2022/07/18 10:18:12;;;;;;;3.70;1.65;;;27.70;34.10;;;;;;5033372;28;20229;-79
2022/07/18 10:20:42;;;;;;;2.70;1.88;;;27.60;34.90;;;;;;5029891;28;20550;-79
2022/07/18 10:23:17;;;;;;;2.92;1.70;;;27.60;35.70;;;;;;5064368;28;20191;-79
2022/07/18 10:25:45;;;;;;;3.25;1.50;;;27.80;35.60;;;;;;5063577;28;20219;-79
2022/07/18 10:28:13;;;;;;;4.72;1.75;;;27.80;35.30;;;;;;5053345;28;20201;-79
2022/07/18 10:30:46;;;;;;;1.98;1.58;;;28.00;35.20;;;;;;5040975;28;20208;-79
2022/07/18 10:33:43;;;;;;;2.67;1.73;;;28.10;34.80;;;;;;5039842;28;20202;-79
2022/07/18 10:36:14;;;;;;;3.22;1.48;;;28.30;35.90;;;;;;5056938;28;20234;-79
2022/07/18 10:39:19;;;;;;;2.70;2.00;;;28.50;36.00;;;;;;5032709;28;20194;-79
2022/07/18 10:42:24;;;;;;;2.00;1.50;;;28.70;35.50;;;;;;5054440;28;20669;-79
2022/07/18 10:44:52;;;;;;;2.90;1.52;;;28.70;35.10;;;;;;5044893;28;20205;-79
2022/07/18 10:47:23;;;;;;;2.03;1.70;;;28.80;34.20;;;;;;5069317;28;20221;-79
2022/07/18 10:50:17;;;;;;;2.42;2.20;;;28.80;33.30;;;;;;5046015;28;20209;-79
2022/07/18 10:53:01;;;;;;;2.17;1.73;;;28.90;33.10;;;;;;5056172;28;20205;-79
2022/07/18 10:55:32;;;;;;;4.32;1.50;;;29.10;32.70;;;;;;5070390;28;20257;-79
2022/07/18 10:58:18;;;;;;;1.95;1.55;;;29.10;32.30;;;;;;5042083;28;20206;-78
2022/07/18 11:00:51;;;;;;;2.83;1.55;;;29.20;32.20;;;;;;5043080;28;20209;-78
2022/07/18 11:03:32;;;;;;;2.75;1.90;;;29.20;32.90;;;;;;5047446;28;20202;-78
2022/07/18 11:06:00;;;;;;;1.95;1.25;;;29.30;32.60;;;;;;5044549;28;20232;-78
2022/07/18 11:08:33;;;;;;;4.40;1.70;;;29.40;32.30;;;;;;5031255;28;20207;-78
2022/07/18 11:11:11;;;;;;;3.63;1.80;;;29.50;32.50;;;;;;5046306;28;20198;-78
2022/07/18 11:13:43;;;;;;;1.75;1.27;;;29.50;31.80;;;;;;5046023;28;20208;-78
2022/07/18 11:16:12;;;;;;;2.50;1.58;;;29.60;30.80;;;;;;5046661;28;20219;-78
2022/07/18 11:19:13;;;;;;;6.07;1.52;;;29.60;31.00;;;;;;5056521;28;20198;-78
2022/07/18 11:21:41;;;;;;;2.38;1.42;;;29.60;31.10;;;;;;5045519;28;20190;-78
2022/07/18 11:24:12;;;;;;;2.72;1.45;;;29.60;31.50;;;;;;5034647;28;20206;-78
2022/07/18 11:26:45;;;;;;;2.00;1.60;;;29.90;31.20;;;;;;5017511;28;20583;-78
2022/07/18 11:29:15;;;;;;;1.67;1.50;;;30.00;31.40;;;;;;5031012;28;20207;-78
2022/07/18 11:31:48;;;;;;;3.05;1.55;;;30.00;31.30;;;;;;5066961;28;20197;-78
2022/07/18 11:34:16;;;;;;;2.63;1.40;;;30.20;31.90;;;;;;5038920;28;20205;-78
2022/07/18 11:36:45;;;;;;;4.93;1.88;;;30.10;31.10;;;;;;5060993;28;20226;-78
2022/07/18 11:39:13;;;;;;;3.75;1.70;;;30.10;31.70;;;;;;5040320;28;20202;-78
2022/07/18 11:41:42;;;;;;;2.45;1.70;;;30.30;31.20;;;;;;5032047;28;20208;-78
2022/07/18 11:44:26;;;;;;;5.03;1.60;;;30.60;30.80;;;;;;5062796;28;20190;-78
2022/07/18 11:47:02;;;;;;;2.65;1.42;;;30.70;30.70;;;;;;5051956;28;20222;-78
2022/07/18 11:49:30;;;;;;;3.25;1.50;;;30.50;30.70;;;;;;5063032;28;20194;-78
2022/07/18 11:51:57;;;;;;;3.50;1.52;;;30.50;30.40;;;;;;5033001;28;20198;-78
2022/07/18 11:54:28;;;;;;;2.58;1.30;;;30.80;30.10;;;;;;5035595;28;20213;-78
2022/07/18 11:56:56;;;;;;;3.20;1.40;;;30.80;29.70;;;;;;5043398;28;20218;-78
2022/07/18 11:59:36;;;;;;;3.03;1.80;;;30.80;29.80;;;;;;5041707;28;20205;-78
2022/07/18 12:02:03;;;;;;;2.38;1.23;;;30.90;30.00;;;;;;5047243;28;20216;-78
2022/07/18 12:04:31;;;;;;;2.35;1.48;;;31.00;29.90;;;;;;5042398;28;20193;-78
2022/07/18 12:07:19;;;;;;;2.28;1.35;;;31.20;29.90;;;;;;5039048;28;20214;-78
2022/07/18 12:09:48;;;;;;;2.38;1.50;;;31.20;29.20;;;;;;5037855;28;20683;-78
2022/07/18 12:12:19;;;;;;;2.78;1.63;;;31.30;29.20;;;;;;5032475;28;20198;-78
2022/07/18 12:14:56;;;;;;;2.47;1.45;;;31.20;28.70;;;;;;5047240;28;20194;-78
2022/07/18 12:17:23;;;;;;;3.58;2.03;;;31.20;28.60;;;;;;5064387;28;20566;-78
2022/07/18 12:19:51;;;;;;;2.20;1.60;;;31.50;28.70;;;;;;5042208;28;20233;-78
2022/07/18 12:22:18;;;;;;;3.53;1.70;;;31.60;28.50;;;;;;5052975;28;20201;-79
2022/07/18 12:24:54;;;;;;;2.97;1.48;;;31.60;29.90;;;;;;5036782;28;20203;-80
2022/07/18 12:27:23;;;;;;;4.90;1.77;;;30.90;29.70;;;;;;5035220;28;20214;-80
2022/07/18 12:30:07;;;;;;;4.53;1.88;;;31.10;29.80;;;;;;5042473;28;20206;-79
2022/07/18 12:32:47;;;;;;;3.35;1.58;;;31.60;29.80;;;;;;5043835;28;20201;-79
2022/07/18 12:35:17;;;;;;;3.72;1.55;;;31.70;29.10;;;;;;5033402;28;20197;-79
2022/07/18 12:38:00;;;;;;;2.13;1.52;;;31.70;28.70;;;;;;5041127;28;20210;-78
2022/07/18 12:40:44;;;;;;;3.55;1.60;;;31.60;29.10;;;;;;5037657;28;20205;-78
2022/07/18 12:43:13;;;;;;;3.95;1.70;;;31.80;28.80;;;;;;5026063;28;20206;-78
2022/07/18 12:45:42;;;;;;;1.95;1.48;;;32.00;28.70;;;;;;5058794;28;20230;-78
2022/07/18 12:48:11;;;;;;;2.92;1.60;;;32.60;28.60;;;;;;5033798;28;20203;-78
2022/07/18 12:50:40;;;;;;;3.75;1.80;;;32.50;28.10;;;;;;5050280;28;20202;-79
2022/07/18 12:53:08;;;;;;;3.40;1.70;;;32.40;28.50;;;;;;5050328;28;20202;-79
2022/07/18 12:55:36;;;;;;;3.22;1.60;;;32.30;28.20;;;;;;5053370;28;20217;-79
2022/07/18 12:58:05;;;;;;;2.13;1.70;;;32.40;28.80;;;;;;5051092;28;20205;-79
2022/07/18 13:00:33;;;;;;;1.63;1.33;;;32.30;28.10;;;;;;5035040;28;20207;-78
2022/07/18 13:03:02;;;;;;;2.17;1.20;;;32.20;28.50;;;;;;5034172;28;20209;-78
2022/07/18 13:05:30;;;;;;;2.45;1.35;;;32.40;28.00;;;;;;5045483;28;20232;-78
2022/07/18 13:07:58;;;;;;;2.38;1.45;;;32.30;28.20;;;;;;5044745;28;20198;-78